This is the latest recevied weather packets stored in our database for station/object M0TJX-1. If no packets are shown the sender has not sent any weather packets the latest 10 day(s).
| Time | Temp. | Humidity | Pressure | Rain* | Wind** | Luminosity | Snow |
|---|---|---|---|---|---|---|---|
| 1777457605 | 16.11° C | 52% | 1023.3 hPa | 0 mm | - | - | - |
| 1777456705 | 15.56° C | 53% | 1023.5 hPa | 0 mm | - | - | - |
| 1777455805 | 15.56° C | 54% | 1023.4 hPa | 0 mm | - | - | - |
| 1777454905 | 15° C | 58% | 1023.3 hPa | 0 mm | - | - | - |
| 1777454005 | 13.89° C | 60% | 1023.1 hPa | 0 mm | - | - | - |
| 1777453105 | 13.33° C | 62% | 1023.4 hPa | 0 mm | - | - | - |
| 1777452205 | 12.78° C | 65% | 1023.5 hPa | 0 mm | - | - | - |
| 1777451305 | 12.22° C | 67% | 1023.5 hPa | 0 mm | - | - | - |
| 1777450407 | 11.67° C | 70% | 1023.5 hPa | 0 mm | - | - | - |
| 1777449505 | 10.56° C | 73% | 1023.9 hPa | 0 mm | - | - | - |
| 1777448606 | 10° C | 75% | 1024.2 hPa | 0 mm | - | - | - |
| 1777447706 | 9.44° C | 77% | 1024.2 hPa | 0 mm | - | - | - |
| 1777446806 | 8.33° C | 80% | 1024.2 hPa | 0 mm | - | - | - |
| 1777445906 | 7.22° C | 84% | 1024.2 hPa | 0 mm | - | - | - |
| 1777445006 | 6.11° C | 89% | 1024.3 hPa | 0 mm | - | - | - |
| 1777444106 | 5.56° C | 91% | 1024.1 hPa | 0 mm | - | - | - |
| 1777443206 | 5° C | 91% | 1024.2 hPa | 0 mm | - | - | - |
| 1777442306 | 4.44° C | 90% | 1024.3 hPa | 0 mm | - | - | - |
| 1777441406 | 4.44° C | 90% | 1024.3 hPa | 0 mm | - | - | - |
| 1777440506 | 4.44° C | 90% | 1024.3 hPa | 0 mm | - | - | - |
| 1777439606 | 4.44° C | 89% | 1024.2 hPa | 0 mm | - | - | - |
| 1777438706 | 4.44° C | 89% | 1024.2 hPa | 0 mm | - | - | - |
| 1777437806 | 4.44° C | 88% | 1024.4 hPa | 0 mm | - | - | - |
| 1777436906 | 4.44° C | 88% | 1024.3 hPa | 0 mm | - | - | - |
| 1777436006 | 4.44° C | 87% | 1024.3 hPa | 0 mm | - | - | - |
* Rain latest hour (hover to see other rain measurements)
** Current wind speed in m/s (hover to see current wind gust speed)